sensor_id;sensor_type;location;lat;lon;timestamp;P1;durP1;ratioP1;P2;durP2;ratioP2
16119;SDS011;12670;53.502;10.252;2023-08-31T00:00:39;18.87;;;11.27;;
16119;SDS011;12670;53.502;10.252;2023-08-31T00:03:42;13.47;;;9.93;;
16119;SDS011;12670;53.502;10.252;2023-08-31T00:06:45;13.47;;;10.07;;
16119;SDS011;12670;53.502;10.252;2023-08-31T00:09:49;13.03;;;9.47;;
16119;SDS011;12670;53.502;10.252;2023-08-31T00:12:53;16.10;;;10.17;;
16119;SDS011;12670;53.502;10.252;2023-08-31T00:15:56;14.23;;;9.97;;
16119;SDS011;12670;53.502;10.252;2023-08-31T00:18:59;14.53;;;9.87;;
16119;SDS011;12670;53.502;10.252;2023-08-31T00:22:03;13.47;;;9.83;;
16119;SDS011;12670;53.502;10.252;2023-08-31T00:25:07;13.63;;;9.50;;
16119;SDS011;12670;53.502;10.252;2023-08-31T00:28:10;14.47;;;9.20;;
16119;SDS011;12670;53.502;10.252;2023-08-31T00:31:13;10.77;;;8.10;;
16119;SDS011;12670;53.502;10.252;2023-08-31T00:34:15;12.60;;;9.30;;
16119;SDS011;12670;53.502;10.252;2023-08-31T00:37:18;13.97;;;8.00;;
16119;SDS011;12670;53.502;10.252;2023-08-31T00:40:24;11.43;;;7.60;;
16119;SDS011;12670;53.502;10.252;2023-08-31T00:43:26;15.00;;;8.23;;
16119;SDS011;12670;53.502;10.252;2023-08-31T00:46:30;9.50;;;7.23;;
16119;SDS011;12670;53.502;10.252;2023-08-31T00:49:33;9.57;;;6.97;;
16119;SDS011;12670;53.502;10.252;2023-08-31T00:52:36;9.63;;;7.03;;
16119;SDS011;12670;53.502;10.252;2023-08-31T00:55:40;10.43;;;7.13;;
16119;SDS011;12670;53.502;10.252;2023-08-31T00:58:44;10.73;;;7.10;;
16119;SDS011;12670;53.502;10.252;2023-08-31T01:01:49;11.77;;;7.67;;
16119;SDS011;12670;53.502;10.252;2023-08-31T01:05:02;15.23;;;9.03;;
16119;SDS011;12670;53.502;10.252;2023-08-31T01:08:14;15.27;;;8.17;;
16119;SDS011;12670;53.502;10.252;2023-08-31T01:11:28;12.80;;;8.60;;
16119;SDS011;12670;53.502;10.252;2023-08-31T01:14:38;13.97;;;8.57;;
16119;SDS011;12670;53.502;10.252;2023-08-31T01:17:45;14.00;;;9.17;;
16119;SDS011;12670;53.502;10.252;2023-08-31T01:20:52;14.77;;;9.20;;
16119;SDS011;12670;53.502;10.252;2023-08-31T01:24:02;12.83;;;9.07;;
16119;SDS011;12670;53.502;10.252;2023-08-31T01:27:06;14.47;;;9.57;;
16119;SDS011;12670;53.502;10.252;2023-08-31T01:30:10;15.83;;;10.10;;
16119;SDS011;12670;53.502;10.252;2023-08-31T01:33:12;14.13;;;9.50;;
16119;SDS011;12670;53.502;10.252;2023-08-31T01:36:17;14.93;;;9.53;;
16119;SDS011;12670;53.502;10.252;2023-08-31T01:39:29;20.73;;;10.23;;
16119;SDS011;12670;53.502;10.252;2023-08-31T01:42:40;16.23;;;9.37;;
16119;SDS011;12670;53.502;10.252;2023-08-31T01:45:44;13.87;;;9.17;;
16119;SDS011;12670;53.502;10.252;2023-08-31T01:48:49;13.30;;;9.17;;
16119;SDS011;12670;53.502;10.252;2023-08-31T01:51:51;12.67;;;9.00;;
16119;SDS011;12670;53.502;10.252;2023-08-31T01:54:55;18.33;;;9.60;;
16119;SDS011;12670;53.502;10.252;2023-08-31T01:57:58;12.20;;;8.47;;
16119;SDS011;12670;53.502;10.252;2023-08-31T02:01:02;13.63;;;9.33;;
16119;SDS011;12670;53.502;10.252;2023-08-31T02:04:05;14.30;;;8.73;;
16119;SDS011;12670;53.502;10.252;2023-08-31T02:07:07;12.50;;;9.10;;
16119;SDS011;12670;53.502;10.252;2023-08-31T02:10:11;15.93;;;9.43;;
16119;SDS011;12670;53.502;10.252;2023-08-31T02:13:14;13.83;;;8.40;;
16119;SDS011;12670;53.502;10.252;2023-08-31T02:16:18;14.80;;;8.73;;
16119;SDS011;12670;53.502;10.252;2023-08-31T02:19:20;11.40;;;7.97;;
16119;SDS011;12670;53.502;10.252;2023-08-31T02:22:23;16.13;;;8.00;;
16119;SDS011;12670;53.502;10.252;2023-08-31T02:25:27;15.90;;;8.47;;
16119;SDS011;12670;53.502;10.252;2023-08-31T02:28:30;13.03;;;7.63;;
16119;SDS011;12670;53.502;10.252;2023-08-31T02:31:33;10.77;;;7.57;;
16119;SDS011;12670;53.502;10.252;2023-08-31T02:34:36;12.60;;;7.77;;
16119;SDS011;12670;53.502;10.252;2023-08-31T02:37:39;10.67;;;7.30;;
16119;SDS011;12670;53.502;10.252;2023-08-31T02:40:45;10.47;;;7.20;;
16119;SDS011;12670;53.502;10.252;2023-08-31T02:43:49;12.80;;;7.93;;
16119;SDS011;12670;53.502;10.252;2023-08-31T02:46:52;15.10;;;7.27;;
16119;SDS011;12670;53.502;10.252;2023-08-31T02:49:55;12.87;;;7.13;;
16119;SDS011;12670;53.502;10.252;2023-08-31T02:52:58;16.40;;;6.90;;
16119;SDS011;12670;53.502;10.252;2023-08-31T02:56:02;14.43;;;7.10;;
16119;SDS011;12670;53.502;10.252;2023-08-31T02:59:04;16.40;;;8.07;;
16119;SDS011;12670;53.502;10.252;2023-08-31T03:02:07;12.60;;;7.10;;
16119;SDS011;12670;53.502;10.252;2023-08-31T03:05:10;9.83;;;6.63;;
16119;SDS011;12670;53.502;10.252;2023-08-31T03:08:13;10.47;;;6.93;;
16119;SDS011;12670;53.502;10.252;2023-08-31T03:11:17;9.73;;;6.60;;
16119;SDS011;12670;53.502;10.252;2023-08-31T03:14:19;11.97;;;6.60;;
16119;SDS011;12670;53.502;10.252;2023-08-31T03:17:22;11.37;;;6.67;;
16119;SDS011;12670;53.502;10.252;2023-08-31T03:20:25;9.70;;;6.07;;
16119;SDS011;12670;53.502;10.252;2023-08-31T03:23:28;11.43;;;6.47;;
16119;SDS011;12670;53.502;10.252;2023-08-31T03:26:33;10.07;;;5.67;;
16119;SDS011;12670;53.502;10.252;2023-08-31T03:29:36;10.67;;;6.23;;
16119;SDS011;12670;53.502;10.252;2023-08-31T03:32:38;9.17;;;5.87;;
16119;SDS011;12670;53.502;10.252;2023-08-31T03:35:41;11.97;;;6.03;;
16119;SDS011;12670;53.502;10.252;2023-08-31T03:38:44;13.83;;;6.27;;
16119;SDS011;12670;53.502;10.252;2023-08-31T03:41:48;8.90;;;5.47;;
16119;SDS011;12670;53.502;10.252;2023-08-31T03:44:50;13.30;;;6.30;;
16119;SDS011;12670;53.502;10.252;2023-08-31T03:47:53;11.57;;;6.23;;
16119;SDS011;12670;53.502;10.252;2023-08-31T03:50:56;11.80;;;6.07;;
16119;SDS011;12670;53.502;10.252;2023-08-31T03:53:58;11.30;;;6.13;;
16119;SDS011;12670;53.502;10.252;2023-08-31T03:57:03;8.73;;;5.63;;
16119;SDS011;12670;53.502;10.252;2023-08-31T04:00:06;13.27;;;5.67;;
16119;SDS011;12670;53.502;10.252;2023-08-31T04:03:10;9.93;;;6.50;;
16119;SDS011;12670;53.502;10.252;2023-08-31T04:06:14;9.40;;;6.13;;
16119;SDS011;12670;53.502;10.252;2023-08-31T04:09:17;8.40;;;5.70;;
16119;SDS011;12670;53.502;10.252;2023-08-31T04:12:21;11.63;;;5.53;;
16119;SDS011;12670;53.502;10.252;2023-08-31T04:15:24;9.27;;;5.63;;
16119;SDS011;12670;53.502;10.252;2023-08-31T04:18:27;7.63;;;4.97;;
16119;SDS011;12670;53.502;10.252;2023-08-31T04:21:29;9.03;;;5.30;;
16119;SDS011;12670;53.502;10.252;2023-08-31T04:24:32;8.83;;;5.03;;
16119;SDS011;12670;53.502;10.252;2023-08-31T04:27:36;8.00;;;5.30;;
16119;SDS011;12670;53.502;10.252;2023-08-31T04:30:40;9.47;;;5.17;;
16119;SDS011;12670;53.502;10.252;2023-08-31T04:33:43;8.40;;;5.03;;
16119;SDS011;12670;53.502;10.252;2023-08-31T04:36:45;18.90;;;5.10;;
16119;SDS011;12670;53.502;10.252;2023-08-31T04:39:48;7.33;;;4.87;;
16119;SDS011;12670;53.502;10.252;2023-08-31T04:42:52;8.30;;;4.57;;
16119;SDS011;12670;53.502;10.252;2023-08-31T04:45:55;12.20;;;4.53;;
16119;SDS011;12670;53.502;10.252;2023-08-31T04:48:57;9.17;;;4.60;;
16119;SDS011;12670;53.502;10.252;2023-08-31T04:52:00;13.87;;;5.03;;
16119;SDS011;12670;53.502;10.252;2023-08-31T04:55:05;7.37;;;4.87;;
16119;SDS011;12670;53.502;10.252;2023-08-31T04:58:11;7.33;;;4.40;;
16119;SDS011;12670;53.502;10.252;2023-08-31T05:01:13;6.10;;;4.13;;
16119;SDS011;12670;53.502;10.252;2023-08-31T05:04:17;10.57;;;4.93;;
16119;SDS011;12670;53.502;10.252;2023-08-31T05:07:20;9.80;;;4.40;;
16119;SDS011;12670;53.502;10.252;2023-08-31T05:10:22;9.23;;;4.70;;
16119;SDS011;12670;53.502;10.252;2023-08-31T05:13:26;12.17;;;5.20;;
16119;SDS011;12670;53.502;10.252;2023-08-31T05:16:29;10.67;;;4.33;;
16119;SDS011;12670;53.502;10.252;2023-08-31T05:19:32;9.30;;;4.90;;
16119;SDS011;12670;53.502;10.252;2023-08-31T05:22:34;9.97;;;4.67;;
16119;SDS011;12670;53.502;10.252;2023-08-31T05:25:41;8.27;;;5.00;;
16119;SDS011;12670;53.502;10.252;2023-08-31T05:28:45;9.00;;;5.20;;
16119;SDS011;12670;53.502;10.252;2023-08-31T05:31:48;8.17;;;4.90;;
16119;SDS011;12670;53.502;10.252;2023-08-31T05:34:50;6.67;;;4.00;;
16119;SDS011;12670;53.502;10.252;2023-08-31T05:37:53;9.00;;;4.70;;
16119;SDS011;12670;53.502;10.252;2023-08-31T05:41:03;8.40;;;4.23;;
16119;SDS011;12670;53.502;10.252;2023-08-31T05:44:09;9.00;;;4.67;;
16119;SDS011;12670;53.502;10.252;2023-08-31T05:47:12;9.60;;;4.97;;
16119;SDS011;12670;53.502;10.252;2023-08-31T05:50:14;13.60;;;4.47;;
16119;SDS011;12670;53.502;10.252;2023-08-31T05:53:17;13.77;;;4.50;;
16119;SDS011;12670;53.502;10.252;2023-08-31T05:56:20;13.37;;;4.60;;
16119;SDS011;12670;53.502;10.252;2023-08-31T05:59:24;8.17;;;3.93;;
16119;SDS011;12670;53.502;10.252;2023-08-31T06:02:27;11.43;;;4.37;;
16119;SDS011;12670;53.502;10.252;2023-08-31T06:05:29;15.57;;;4.90;;
16119;SDS011;12670;53.502;10.252;2023-08-31T06:08:32;8.83;;;4.23;;
16119;SDS011;12670;53.502;10.252;2023-08-31T06:11:35;9.00;;;4.63;;
16119;SDS011;12670;53.502;10.252;2023-08-31T06:14:39;11.37;;;4.63;;
16119;SDS011;12670;53.502;10.252;2023-08-31T06:17:42;10.67;;;4.80;;
16119;SDS011;12670;53.502;10.252;2023-08-31T06:20:44;7.03;;;4.40;;
16119;SDS011;12670;53.502;10.252;2023-08-31T06:23:49;12.73;;;4.20;;
16119;SDS011;12670;53.502;10.252;2023-08-31T06:26:52;6.77;;;3.50;;
16119;SDS011;12670;53.502;10.252;2023-08-31T06:29:57;10.60;;;4.53;;
16119;SDS011;12670;53.502;10.252;2023-08-31T06:33:00;10.23;;;4.57;;
16119;SDS011;12670;53.502;10.252;2023-08-31T06:36:03;12.53;;;3.97;;
16119;SDS011;12670;53.502;10.252;2023-08-31T06:39:06;10.03;;;4.53;;
16119;SDS011;12670;53.502;10.252;2023-08-31T06:42:09;10.10;;;3.73;;
16119;SDS011;12670;53.502;10.252;2023-08-31T06:45:13;8.33;;;3.57;;
16119;SDS011;12670;53.502;10.252;2023-08-31T06:48:16;7.37;;;4.00;;
16119;SDS011;12670;53.502;10.252;2023-08-31T06:51:19;5.77;;;3.60;;
16119;SDS011;12670;53.502;10.252;2023-08-31T06:54:25;7.63;;;3.87;;
16119;SDS011;12670;53.502;10.252;2023-08-31T06:57:28;9.40;;;4.10;;
16119;SDS011;12670;53.502;10.252;2023-08-31T07:00:32;11.30;;;4.27;;
16119;SDS011;12670;53.502;10.252;2023-08-31T07:03:34;7.10;;;3.90;;
16119;SDS011;12670;53.502;10.252;2023-08-31T07:06:37;8.30;;;3.83;;
16119;SDS011;12670;53.502;10.252;2023-08-31T07:09:41;9.27;;;3.80;;
16119;SDS011;12670;53.502;10.252;2023-08-31T07:12:44;10.07;;;4.00;;
16119;SDS011;12670;53.502;10.252;2023-08-31T07:15:48;10.27;;;3.77;;
16119;SDS011;12670;53.502;10.252;2023-08-31T07:18:51;8.77;;;3.37;;
16119;SDS011;12670;53.502;10.252;2023-08-31T07:21:54;9.83;;;3.53;;
16119;SDS011;12670;53.502;10.252;2023-08-31T07:24:57;6.57;;;2.93;;
16119;SDS011;12670;53.502;10.252;2023-08-31T07:27:59;4.77;;;3.10;;
16119;SDS011;12670;53.502;10.252;2023-08-31T07:31:04;8.43;;;2.90;;
16119;SDS011;12670;53.502;10.252;2023-08-31T07:34:08;8.53;;;3.50;;
16119;SDS011;12670;53.502;10.252;2023-08-31T07:37:11;8.13;;;3.40;;
16119;SDS011;12670;53.502;10.252;2023-08-31T07:40:14;4.53;;;2.47;;
16119;SDS011;12670;53.502;10.252;2023-08-31T07:43:17;6.33;;;2.57;;
16119;SDS011;12670;53.502;10.252;2023-08-31T07:46:21;4.37;;;2.40;;
16119;SDS011;12670;53.502;10.252;2023-08-31T07:49:24;4.70;;;2.53;;
16119;SDS011;12670;53.502;10.252;2023-08-31T07:52:26;8.70;;;2.60;;
16119;SDS011;12670;53.502;10.252;2023-08-31T07:55:29;5.83;;;2.47;;
16119;SDS011;12670;53.502;10.252;2023-08-31T07:58:32;9.70;;;2.30;;
16119;SDS011;12670;53.502;10.252;2023-08-31T08:01:36;7.17;;;2.60;;
16119;SDS011;12670;53.502;10.252;2023-08-31T08:04:39;11.90;;;3.10;;
16119;SDS011;12670;53.502;10.252;2023-08-31T08:07:41;6.90;;;2.53;;
16119;SDS011;12670;53.502;10.252;2023-08-31T08:10:44;10.93;;;2.80;;
16119;SDS011;12670;53.502;10.252;2023-08-31T08:13:47;6.50;;;2.57;;
16119;SDS011;12670;53.502;10.252;2023-08-31T08:16:51;6.00;;;2.43;;
16119;SDS011;12670;53.502;10.252;2023-08-31T08:19:54;6.00;;;2.00;;
16119;SDS011;12670;53.502;10.252;2023-08-31T08:22:57;4.00;;;2.10;;
16119;SDS011;12670;53.502;10.252;2023-08-31T08:26:00;5.53;;;2.20;;
16119;SDS011;12670;53.502;10.252;2023-08-31T08:29:03;5.20;;;2.07;;
16119;SDS011;12670;53.502;10.252;2023-08-31T08:32:07;5.00;;;1.80;;
16119;SDS011;12670;53.502;10.252;2023-08-31T08:35:10;6.23;;;2.27;;
16119;SDS011;12670;53.502;10.252;2023-08-31T08:38:13;7.57;;;2.47;;
16119;SDS011;12670;53.502;10.252;2023-08-31T08:41:15;7.47;;;2.67;;
16119;SDS011;12670;53.502;10.252;2023-08-31T08:44:25;5.43;;;2.37;;
16119;SDS011;12670;53.502;10.252;2023-08-31T08:47:32;6.03;;;2.07;;
16119;SDS011;12670;53.502;10.252;2023-08-31T08:50:36;8.50;;;2.50;;
16119;SDS011;12670;53.502;10.252;2023-08-31T08:53:39;3.83;;;2.07;;
16119;SDS011;12670;53.502;10.252;2023-08-31T08:56:45;5.70;;;2.37;;
16119;SDS011;12670;53.502;10.252;2023-08-31T08:59:47;3.57;;;1.90;;
16119;SDS011;12670;53.502;10.252;2023-08-31T09:02:51;4.20;;;2.27;;
16119;SDS011;12670;53.502;10.252;2023-08-31T09:05:54;4.00;;;1.90;;
16119;SDS011;12670;53.502;10.252;2023-08-31T09:08:57;5.57;;;2.10;;
16119;SDS011;12670;53.502;10.252;2023-08-31T09:12:06;6.80;;;1.90;;
16119;SDS011;12670;53.502;10.252;2023-08-31T09:15:09;7.30;;;2.10;;
16119;SDS011;12670;53.502;10.252;2023-08-31T09:18:17;7.90;;;2.60;;
16119;SDS011;12670;53.502;10.252;2023-08-31T09:21:34;5.27;;;2.30;;
16119;SDS011;12670;53.502;10.252;2023-08-31T09:24:40;3.60;;;2.00;;
16119;SDS011;12670;53.502;10.252;2023-08-31T09:27:43;5.97;;;2.50;;
16119;SDS011;12670;53.502;10.252;2023-08-31T09:30:47;4.87;;;2.10;;
16119;SDS011;12670;53.502;10.252;2023-08-31T09:33:52;5.60;;;2.67;;
16119;SDS011;12670;53.502;10.252;2023-08-31T09:36:55;6.77;;;2.80;;
16119;SDS011;12670;53.502;10.252;2023-08-31T09:40:01;8.20;;;2.70;;
16119;SDS011;12670;53.502;10.252;2023-08-31T09:43:04;3.70;;;2.07;;
16119;SDS011;12670;53.502;10.252;2023-08-31T09:46:07;6.73;;;2.90;;
16119;SDS011;12670;53.502;10.252;2023-08-31T09:49:13;5.40;;;2.60;;
16119;SDS011;12670;53.502;10.252;2023-08-31T09:52:17;7.57;;;2.57;;
16119;SDS011;12670;53.502;10.252;2023-08-31T09:55:20;5.57;;;2.50;;
16119;SDS011;12670;53.502;10.252;2023-08-31T09:58:25;6.20;;;2.17;;
16119;SDS011;12670;53.502;10.252;2023-08-31T10:01:29;6.90;;;2.10;;
16119;SDS011;12670;53.502;10.252;2023-08-31T10:04:34;5.60;;;2.17;;
16119;SDS011;12670;53.502;10.252;2023-08-31T10:07:38;6.70;;;2.27;;
16119;SDS011;12670;53.502;10.252;2023-08-31T10:10:41;3.17;;;2.00;;
16119;SDS011;12670;53.502;10.252;2023-08-31T10:13:44;4.03;;;2.10;;
16119;SDS011;12670;53.502;10.252;2023-08-31T10:16:49;3.37;;;2.00;;
16119;SDS011;12670;53.502;10.252;2023-08-31T10:19:56;5.20;;;2.20;;
16119;SDS011;12670;53.502;10.252;2023-08-31T10:22:59;5.20;;;1.90;;
16119;SDS011;12670;53.502;10.252;2023-08-31T10:26:04;6.60;;;1.70;;
16119;SDS011;12670;53.502;10.252;2023-08-31T10:29:07;5.33;;;1.90;;
16119;SDS011;12670;53.502;10.252;2023-08-31T10:32:29;8.67;;;1.90;;
16119;SDS011;12670;53.502;10.252;2023-08-31T10:35:41;4.57;;;2.00;;
16119;SDS011;12670;53.502;10.252;2023-08-31T10:38:59;3.03;;;1.70;;
16119;SDS011;12670;53.502;10.252;2023-08-31T10:42:03;4.33;;;2.10;;
16119;SDS011;12670;53.502;10.252;2023-08-31T10:45:06;4.80;;;1.90;;
16119;SDS011;12670;53.502;10.252;2023-08-31T10:48:09;7.77;;;2.47;;
16119;SDS011;12670;53.502;10.252;2023-08-31T10:51:16;6.20;;;1.90;;
16119;SDS011;12670;53.502;10.252;2023-08-31T10:54:20;8.90;;;2.57;;
16119;SDS011;12670;53.502;10.252;2023-08-31T10:57:29;5.77;;;1.80;;
16119;SDS011;12670;53.502;10.252;2023-08-31T11:03:59;7.47;;;2.20;;
16119;SDS011;12670;53.502;10.252;2023-08-31T11:07:12;4.67;;;1.80;;
16119;SDS011;12670;53.502;10.252;2023-08-31T11:10:16;4.90;;;1.70;;
16119;SDS011;12670;53.502;10.252;2023-08-31T11:13:22;2.30;;;1.60;;
16119;SDS011;12670;53.502;10.252;2023-08-31T11:16:25;4.97;;;1.73;;
16119;SDS011;12670;53.502;10.252;2023-08-31T11:19:29;3.22;;;1.85;;
16119;SDS011;12670;53.502;10.252;2023-08-31T11:22:33;2.97;;;1.50;;
16119;SDS011;12670;53.502;10.252;2023-08-31T11:25:36;3.85;;;1.80;;
16119;SDS011;12670;53.502;10.252;2023-08-31T11:28:38;4.53;;;1.63;;
16119;SDS011;12670;53.502;10.252;2023-08-31T11:31:41;3.38;;;1.73;;
16119;SDS011;12670;53.502;10.252;2023-08-31T11:34:44;1.65;;;1.48;;
16119;SDS011;12670;53.502;10.252;2023-08-31T11:37:50;9.60;;;2.15;;
16119;SDS011;12670;53.502;10.252;2023-08-31T11:40:56;2.80;;;1.50;;
16119;SDS011;12670;53.502;10.252;2023-08-31T11:43:59;5.25;;;1.80;;
16119;SDS011;12670;53.502;10.252;2023-08-31T11:47:02;2.30;;;1.80;;
16119;SDS011;12670;53.502;10.252;2023-08-31T11:50:05;2.50;;;1.42;;
16119;SDS011;12670;53.502;10.252;2023-08-31T11:53:11;3.42;;;1.50;;
16119;SDS011;12670;53.502;10.252;2023-08-31T11:56:14;5.55;;;1.60;;
16119;SDS011;12670;53.502;10.252;2023-08-31T11:59:17;2.65;;;1.35;;
16119;SDS011;12670;53.502;10.252;2023-08-31T12:02:21;4.28;;;1.65;;
16119;SDS011;12670;53.502;10.252;2023-08-31T12:05:24;4.50;;;1.38;;
16119;SDS011;12670;53.502;10.252;2023-08-31T12:08:29;2.75;;;1.23;;
16119;SDS011;12670;53.502;10.252;2023-08-31T12:11:31;4.68;;;1.45;;
16119;SDS011;12670;53.502;10.252;2023-08-31T12:14:36;1.75;;;1.20;;
16119;SDS011;12670;53.502;10.252;2023-08-31T12:17:39;2.67;;;1.40;;
16119;SDS011;12670;53.502;10.252;2023-08-31T12:20:44;2.15;;;1.33;;
16119;SDS011;12670;53.502;10.252;2023-08-31T12:23:49;3.63;;;1.50;;
16119;SDS011;12670;53.502;10.252;2023-08-31T12:26:52;3.13;;;1.45;;
16119;SDS011;12670;53.502;10.252;2023-08-31T12:29:56;2.03;;;1.20;;
16119;SDS011;12670;53.502;10.252;2023-08-31T12:32:58;1.88;;;1.20;;
16119;SDS011;12670;53.502;10.252;2023-08-31T12:36:01;6.32;;;1.30;;
16119;SDS011;12670;53.502;10.252;2023-08-31T12:39:06;3.08;;;1.30;;
16119;SDS011;12670;53.502;10.252;2023-08-31T12:42:11;2.83;;;1.50;;
16119;SDS011;12670;53.502;10.252;2023-08-31T12:45:24;1.92;;;1.20;;
16119;SDS011;12670;53.502;10.252;2023-08-31T12:48:27;3.47;;;1.30;;
16119;SDS011;12670;53.502;10.252;2023-08-31T12:51:29;2.67;;;1.40;;
16119;SDS011;12670;53.502;10.252;2023-08-31T12:54:34;2.38;;;1.20;;
16119;SDS011;12670;53.502;10.252;2023-08-31T12:57:36;2.05;;;0.90;;
16119;SDS011;12670;53.502;10.252;2023-08-31T13:00:39;3.00;;;1.20;;
16119;SDS011;12670;53.502;10.252;2023-08-31T13:03:44;3.40;;;1.20;;
16119;SDS011;12670;53.502;10.252;2023-08-31T13:06:48;4.32;;;1.40;;
16119;SDS011;12670;53.502;10.252;2023-08-31T13:09:52;3.42;;;0.90;;
16119;SDS011;12670;53.502;10.252;2023-08-31T13:12:54;1.83;;;0.98;;
16119;SDS011;12670;53.502;10.252;2023-08-31T13:15:57;5.78;;;1.52;;
16119;SDS011;12670;53.502;10.252;2023-08-31T13:19:00;6.70;;;1.63;;
16119;SDS011;12670;53.502;10.252;2023-08-31T13:22:03;5.77;;;1.37;;
16119;SDS011;12670;53.502;10.252;2023-08-31T13:25:07;5.80;;;1.40;;
16119;SDS011;12670;53.502;10.252;2023-08-31T13:28:12;2.40;;;1.10;;
16119;SDS011;12670;53.502;10.252;2023-08-31T13:31:15;8.53;;;1.23;;
16119;SDS011;12670;53.502;10.252;2023-08-31T13:34:18;4.17;;;1.23;;
16119;SDS011;12670;53.502;10.252;2023-08-31T13:37:21;3.37;;;1.40;;
16119;SDS011;12670;53.502;10.252;2023-08-31T13:40:26;1.87;;;0.90;;
16119;SDS011;12670;53.502;10.252;2023-08-31T13:43:28;2.23;;;1.13;;
16119;SDS011;12670;53.502;10.252;2023-08-31T13:46:31;1.73;;;1.10;;
16119;SDS011;12670;53.502;10.252;2023-08-31T13:49:34;2.50;;;1.00;;
16119;SDS011;12670;53.502;10.252;2023-08-31T13:52:36;1.75;;;1.10;;
16119;SDS011;12670;53.502;10.252;2023-08-31T13:55:40;2.65;;;1.42;;
16119;SDS011;12670;53.502;10.252;2023-08-31T13:58:43;2.97;;;1.38;;
16119;SDS011;12670;53.502;10.252;2023-08-31T14:01:46;5.68;;;1.33;;
16119;SDS011;12670;53.502;10.252;2023-08-31T14:04:48;2.83;;;1.30;;
16119;SDS011;12670;53.502;10.252;2023-08-31T14:07:51;1.70;;;0.95;;
16119;SDS011;12670;53.502;10.252;2023-08-31T14:10:55;4.28;;;2.25;;
16119;SDS011;12670;53.502;10.252;2023-08-31T14:14:01;2.65;;;1.50;;
16119;SDS011;12670;53.502;10.252;2023-08-31T14:17:06;2.25;;;1.02;;
16119;SDS011;12670;53.502;10.252;2023-08-31T14:20:10;1.60;;;0.90;;
16119;SDS011;12670;53.502;10.252;2023-08-31T14:23:13;1.75;;;1.10;;
16119;SDS011;12670;53.502;10.252;2023-08-31T14:26:18;1.98;;;1.00;;
16119;SDS011;12670;53.502;10.252;2023-08-31T14:29:21;1.63;;;0.90;;
16119;SDS011;12670;53.502;10.252;2023-08-31T14:32:23;2.30;;;0.98;;
16119;SDS011;12670;53.502;10.252;2023-08-31T14:35:27;1.30;;;0.90;;
16119;SDS011;12670;53.502;10.252;2023-08-31T14:38:29;2.53;;;1.08;;
16119;SDS011;12670;53.502;10.252;2023-08-31T14:41:33;2.33;;;1.20;;
16119;SDS011;12670;53.502;10.252;2023-08-31T14:44:36;4.67;;;1.13;;
16119;SDS011;12670;53.502;10.252;2023-08-31T14:47:39;2.40;;;0.93;;
16119;SDS011;12670;53.502;10.252;2023-08-31T14:50:42;2.13;;;0.90;;
16119;SDS011;12670;53.502;10.252;2023-08-31T14:53:45;1.60;;;1.00;;
16119;SDS011;12670;53.502;10.252;2023-08-31T14:56:50;3.30;;;1.20;;
16119;SDS011;12670;53.502;10.252;2023-08-31T14:59:53;2.13;;;1.17;;
16119;SDS011;12670;53.502;10.252;2023-08-31T15:02:55;2.70;;;1.13;;
16119;SDS011;12670;53.502;10.252;2023-08-31T15:05:58;3.20;;;1.33;;
16119;SDS011;12670;53.502;10.252;2023-08-31T15:09:01;2.73;;;1.47;;
16119;SDS011;12670;53.502;10.252;2023-08-31T15:12:06;2.00;;;1.37;;
16119;SDS011;12670;53.502;10.252;2023-08-31T15:15:09;4.17;;;1.40;;
16119;SDS011;12670;53.502;10.252;2023-08-31T15:18:12;4.97;;;1.47;;
16119;SDS011;12670;53.502;10.252;2023-08-31T15:21:15;3.77;;;1.20;;
16119;SDS011;12670;53.502;10.252;2023-08-31T15:24:18;4.83;;;1.10;;
16119;SDS011;12670;53.502;10.252;2023-08-31T15:27:22;2.20;;;1.00;;
16119;SDS011;12670;53.502;10.252;2023-08-31T15:30:25;1.43;;;1.03;;
16119;SDS011;12670;53.502;10.252;2023-08-31T15:33:28;9.03;;;1.10;;
16119;SDS011;12670;53.502;10.252;2023-08-31T15:36:30;2.60;;;1.27;;
16119;SDS011;12670;53.502;10.252;2023-08-31T15:39:33;2.03;;;1.13;;
16119;SDS011;12670;53.502;10.252;2023-08-31T15:42:37;4.13;;;1.20;;
16119;SDS011;12670;53.502;10.252;2023-08-31T15:45:40;1.57;;;0.90;;
16119;SDS011;12670;53.502;10.252;2023-08-31T15:48:48;1.63;;;1.00;;
16119;SDS011;12670;53.502;10.252;2023-08-31T15:51:51;1.23;;;0.90;;
16119;SDS011;12670;53.502;10.252;2023-08-31T15:54:54;3.47;;;1.13;;
16119;SDS011;12670;53.502;10.252;2023-08-31T15:57:58;6.30;;;1.50;;
16119;SDS011;12670;53.502;10.252;2023-08-31T16:01:00;3.03;;;1.30;;
16119;SDS011;12670;53.502;10.252;2023-08-31T16:04:04;4.67;;;1.83;;
16119;SDS011;12670;53.502;10.252;2023-08-31T16:07:07;2.60;;;1.47;;
16119;SDS011;12670;53.502;10.252;2023-08-31T16:10:10;3.57;;;1.03;;
16119;SDS011;12670;53.502;10.252;2023-08-31T16:13:14;2.70;;;1.17;;
16119;SDS011;12670;53.502;10.252;2023-08-31T16:16:16;3.50;;;1.37;;
16119;SDS011;12670;53.502;10.252;2023-08-31T16:19:19;1.80;;;1.10;;
16119;SDS011;12670;53.502;10.252;2023-08-31T16:22:25;2.93;;;1.20;;
16119;SDS011;12670;53.502;10.252;2023-08-31T16:25:28;2.40;;;1.30;;
16119;SDS011;12670;53.502;10.252;2023-08-31T16:28:32;3.27;;;1.30;;
16119;SDS011;12670;53.502;10.252;2023-08-31T16:31:35;3.80;;;1.27;;
16119;SDS011;12670;53.502;10.252;2023-08-31T16:34:38;3.70;;;1.10;;
16119;SDS011;12670;53.502;10.252;2023-08-31T16:37:41;2.30;;;1.40;;
16119;SDS011;12670;53.502;10.252;2023-08-31T16:40:44;3.47;;;1.30;;
16119;SDS011;12670;53.502;10.252;2023-08-31T16:43:48;2.23;;;0.90;;
16119;SDS011;12670;53.502;10.252;2023-08-31T16:46:51;4.10;;;1.23;;
16119;SDS011;12670;53.502;10.252;2023-08-31T16:49:58;3.27;;;1.13;;
16119;SDS011;12670;53.502;10.252;2023-08-31T16:53:01;1.70;;;1.10;;
16119;SDS011;12670;53.502;10.252;2023-08-31T16:56:04;1.33;;;0.90;;
16119;SDS011;12670;53.502;10.252;2023-08-31T16:59:08;3.63;;;1.00;;
16119;SDS011;12670;53.502;10.252;2023-08-31T17:02:11;1.53;;;1.00;;
16119;SDS011;12670;53.502;10.252;2023-08-31T17:05:14;2.27;;;1.00;;
16119;SDS011;12670;53.502;10.252;2023-08-31T17:08:17;5.87;;;1.30;;
16119;SDS011;12670;53.502;10.252;2023-08-31T17:11:20;2.93;;;1.30;;
16119;SDS011;12670;53.502;10.252;2023-08-31T17:14:24;1.43;;;0.90;;
16119;SDS011;12670;53.502;10.252;2023-08-31T17:17:27;2.20;;;1.20;;
16119;SDS011;12670;53.502;10.252;2023-08-31T17:20:32;2.33;;;1.20;;
16119;SDS011;12670;53.502;10.252;2023-08-31T17:23:35;4.27;;;1.30;;
16119;SDS011;12670;53.502;10.252;2023-08-31T17:26:38;4.13;;;1.50;;
16119;SDS011;12670;53.502;10.252;2023-08-31T17:29:42;4.73;;;1.53;;
16119;SDS011;12670;53.502;10.252;2023-08-31T17:32:45;5.33;;;1.50;;
16119;SDS011;12670;53.502;10.252;2023-08-31T17:35:48;2.17;;;1.30;;
16119;SDS011;12670;53.502;10.252;2023-08-31T17:38:50;5.60;;;1.30;;
16119;SDS011;12670;53.502;10.252;2023-08-31T17:41:53;4.80;;;1.30;;
16119;SDS011;12670;53.502;10.252;2023-08-31T17:44:57;5.27;;;1.60;;
16119;SDS011;12670;53.502;10.252;2023-08-31T17:48:00;5.83;;;1.67;;
16119;SDS011;12670;53.502;10.252;2023-08-31T17:51:03;2.13;;;1.40;;
16119;SDS011;12670;53.502;10.252;2023-08-31T17:54:06;4.17;;;1.60;;
16119;SDS011;12670;53.502;10.252;2023-08-31T17:57:08;3.60;;;1.50;;
16119;SDS011;12670;53.502;10.252;2023-08-31T18:00:13;3.43;;;1.60;;
16119;SDS011;12670;53.502;10.252;2023-08-31T18:03:17;2.43;;;1.43;;
16119;SDS011;12670;53.502;10.252;2023-08-31T18:06:20;3.30;;;1.43;;
16119;SDS011;12670;53.502;10.252;2023-08-31T18:09:23;3.57;;;1.77;;